Time;durP1;ratioP1;P1;durP2;ratioP2;P2;SDS_P1;SDS_P2;PMS_P1;PMS_P2;Temp;Humidity;BMP_temperature;BMP_pressure;BME280_temperature;BME280_humidity;BME280_pressure;Samples;Min_cycle;Max_cycle;Signal;HPM_P1;HPM_P2
2021/12/06 00:00:13;;;;;;;0.00;0.00;;;2.60;99.90;;;;;;5074499;28;20024;-50
2021/12/06 00:02:40;;;;;;;1.85;1.17;;;2.70;99.90;;;;;;5074269;28;20053;-51
2021/12/06 00:05:06;;;;;;;0.00;0.00;;;2.60;99.90;;;;;;5073914;28;20539;-51
2021/12/06 00:07:32;;;;;;;0.00;0.00;;;2.60;99.90;;;;;;5073994;28;20028;-51
2021/12/06 00:09:58;;;;;;;0.10;0.10;;;2.70;99.90;;;;;;5074290;28;20089;-50
2021/12/06 00:12:24;;;;;;;0.00;0.00;;;2.70;99.90;;;;;;5074092;28;20028;-50
2021/12/06 00:14:49;;;;;;;0.00;0.00;;;2.70;99.90;;;;;;5056150;28;20032;-53
2021/12/06 00:17:16;;;;;;;0.60;0.60;;;2.70;99.90;;;;;;5073845;28;20383;-47
2021/12/06 00:19:43;;;;;;;0.00;0.00;;;2.60;99.90;;;;;;5074271;28;20032;-49
2021/12/06 00:22:13;;;;;;;0.00;0.00;;;2.60;99.90;;;;;;5074281;28;20482;-52
2021/12/06 00:24:39;;;;;;;0.00;0.00;;;2.50;99.90;;;;;;5073846;28;20056;-48
2021/12/06 00:27:05;;;;;;;0.00;0.00;;;2.60;99.90;;;;;;5056179;28;20029;-51
2021/12/06 00:29:31;;;;;;;0.00;0.00;;;2.70;99.90;;;;;;5056058;28;20456;-49
2021/12/06 00:31:57;;;;;;;0.00;0.00;;;2.60;99.90;;;;;;5073932;28;20055;-52
2021/12/06 00:34:25;;;;;;;0.00;0.00;;;2.60;99.90;;;;;;5073533;28;20064;-51
2021/12/06 00:37:05;;;;;;;0.00;0.00;;;2.60;99.90;;;;;;5074560;28;20028;-50
2021/12/06 00:39:32;;;;;;;0.00;0.00;;;2.60;99.90;;;;;;5083439;28;20024;-48
2021/12/06 00:41:58;;;;;;;0.00;0.00;;;2.70;99.90;;;;;;5073652;28;20418;-47
2021/12/06 00:44:24;;;;;;;0.00;0.00;;;2.70;99.90;;;;;;5090782;28;20028;-50
2021/12/06 00:46:50;;;;;;;0.00;0.00;;;2.70;99.90;;;;;;5093947;28;20107;-49
2021/12/06 00:49:16;;;;;;;0.00;0.00;;;2.80;99.90;;;;;;5092991;28;20024;-50
2021/12/06 00:51:42;;;;;;;0.00;0.00;;;2.70;99.90;;;;;;5094094;28;20126;-52
2021/12/06 00:54:13;;;;;;;0.00;0.00;;;2.80;99.90;;;;;;5092250;28;20035;-49
2021/12/06 00:56:39;;;;;;;0.00;0.00;;;2.80;99.90;;;;;;5092588;28;20031;-48
2021/12/06 00:59:05;;;;;;;0.00;0.00;;;2.80;99.90;;;;;;5093552;28;20032;-48
2021/12/06 01:01:32;;;;;;;3.70;3.35;;;2.80;99.90;;;;;;5093734;28;20470;-49
2021/12/06 01:03:59;;;;;;;0.00;0.00;;;2.90;99.90;;;;;;5099953;28;20080;-48
2021/12/06 01:06:25;;;;;;;0.00;0.00;;;2.90;99.90;;;;;;5095142;28;20039;-52
2021/12/06 01:08:51;;;;;;;0.00;0.00;;;3.00;99.90;;;;;;5113705;28;20024;-50
2021/12/06 01:11:16;;;;;;;0.00;0.00;;;3.00;99.90;;;;;;5101676;28;20031;-51
2021/12/06 01:13:42;;;;;;;0.00;0.00;;;3.00;99.90;;;;;;5093140;28;20093;-52
2021/12/06 01:16:08;;;;;;;0.00;0.00;;;3.10;99.90;;;;;;5093627;28;20031;-54
2021/12/06 01:18:34;;;;;;;0.00;0.00;;;3.10;99.90;;;;;;5093534;28;20024;-49
2021/12/06 01:21:10;;;;;;;0.00;0.00;;;3.10;99.90;;;;;;5093143;28;20036;-49
2021/12/06 01:34:10;;;;;;;0.00;0.00;;;3.10;99.90;;;;;;5112884;28;20139;-51
2021/12/06 01:39:24;;;;;;;0.00;0.00;;;3.10;99.90;;;;;;5092662;28;20084;-50
2021/12/06 01:41:51;;;;;;;0.47;0.30;;;3.20;99.90;;;;;;5094916;28;20107;-51
2021/12/06 01:44:26;;;;;;;4.63;0.70;;;3.00;99.90;;;;;;5087817;28;20024;-49
2021/12/06 01:46:51;;;;;;;1.42;0.75;;;2.80;99.90;;;;;;5091721;28;20024;-48
2021/12/06 01:49:20;;;;;;;0.00;0.00;;;2.50;99.90;;;;;;5092538;28;20028;-50
2021/12/06 01:51:48;;;;;;;0.57;0.55;;;2.40;99.90;;;;;;5092968;28;20109;-48
2021/12/06 01:54:16;;;;;;;0.28;0.20;;;2.30;99.90;;;;;;5111374;28;20135;-50
2021/12/06 01:56:42;;;;;;;0.00;0.00;;;2.10;99.90;;;;;;5099449;28;20024;-51
2021/12/06 01:59:08;;;;;;;1.30;1.20;;;2.10;99.90;;;;;;5089323;28;20101;-49
2021/12/06 02:01:35;;;;;;;7.38;2.60;;;2.10;99.90;;;;;;5096658;28;20448;-49
2021/12/06 02:04:01;;;;;;;0.10;0.10;;;2.00;99.90;;;;;;5072163;28;20045;-50
2021/12/06 02:06:27;;;;;;;0.00;0.00;;;1.90;99.90;;;;;;5071230;28;20454;-48
2021/12/06 02:08:53;;;;;;;3.13;2.78;;;1.90;99.90;;;;;;5074440;28;20025;-52
2021/12/06 02:11:19;;;;;;;2.05;1.58;;;1.90;99.90;;;;;;5071175;28;20025;-49
2021/12/06 02:14:16;;;;;;;7.35;2.08;;;1.90;99.90;;;;;;5073592;28;20029;-53
2021/12/06 02:16:55;;;;;;;2.30;1.05;;;1.80;99.90;;;;;;5065187;28;20471;-49
2021/12/06 02:19:28;;;;;;;3.10;1.83;;;1.80;99.90;;;;;;5067094;28;20413;-48
2021/12/06 02:21:54;;;;;;;0.93;0.88;;;1.80;99.90;;;;;;5067624;28;20024;-49
2021/12/06 02:24:20;;;;;;;0.00;0.00;;;1.90;99.90;;;;;;5074752;28;20378;-49
2021/12/06 02:26:46;;;;;;;3.28;1.38;;;2.00;99.90;;;;;;5076367;28;20029;-48
2021/12/06 02:29:12;;;;;;;0.00;0.00;;;2.00;99.90;;;;;;5075220;28;20036;-50
2021/12/06 02:31:37;;;;;;;0.70;0.70;;;2.10;99.90;;;;;;5076282;28;20044;-52
2021/12/06 02:34:04;;;;;;;4.57;2.55;;;2.20;99.90;;;;;;5075734;28;20029;-53
2021/12/06 02:36:30;;;;;;;0.40;0.17;;;2.20;99.90;;;;;;5068359;28;20021;-52
2021/12/06 02:38:56;;;;;;;0.73;0.73;;;2.10;99.90;;;;;;5068807;28;20158;-51
2021/12/06 02:41:22;;;;;;;2.38;0.90;;;2.20;99.90;;;;;;5072766;28;20033;-50
2021/12/06 02:43:49;;;;;;;0.10;0.10;;;2.20;99.90;;;;;;5068926;28;20028;-53
2021/12/06 02:46:15;;;;;;;1.45;0.85;;;2.30;99.90;;;;;;5062056;28;20024;-53
2021/12/06 02:48:41;;;;;;;2.05;1.15;;;2.20;99.90;;;;;;5073619;28;20088;-50
2021/12/06 02:51:08;;;;;;;0.00;0.00;;;2.20;99.90;;;;;;5073519;28;20024;-54
2021/12/06 02:53:36;;;;;;;0.00;0.00;;;2.20;99.90;;;;;;5072727;28;20033;-51
2021/12/06 02:56:06;;;;;;;0.00;0.00;;;2.30;99.90;;;;;;5073912;28;20032;-48
2021/12/06 03:01:16;;;;;;;0.10;0.10;;;2.60;99.90;;;;;;5073005;28;20037;-55
2021/12/06 03:03:42;;;;;;;2.42;0.65;;;2.70;99.90;;;;;;5067917;28;20395;-50
2021/12/06 03:06:09;;;;;;;6.45;5.32;;;2.70;99.90;;;;;;5092734;28;20016;-47
2021/12/06 03:08:47;;;;;;;0.00;0.00;;;2.70;99.90;;;;;;5071028;28;20040;-49
2021/12/06 03:11:17;;;;;;;0.00;0.00;;;2.80;99.90;;;;;;5073434;28;20078;-48
2021/12/06 03:13:44;;;;;;;0.00;0.00;;;2.70;99.90;;;;;;5073986;28;20426;-51
2021/12/06 03:16:10;;;;;;;0.00;0.00;;;2.80;99.90;;;;;;5066979;28;20037;-50
2021/12/06 03:18:36;;;;;;;0.00;0.00;;;2.90;99.90;;;;;;5072738;28;20071;-49
2021/12/06 03:21:02;;;;;;;0.00;0.00;;;2.90;99.90;;;;;;5074336;28;20017;-54
2021/12/06 03:23:28;;;;;;;0.00;0.00;;;2.90;99.90;;;;;;5075012;28;20021;-54
2021/12/06 03:25:53;;;;;;;0.17;0.17;;;3.00;99.90;;;;;;5075078;28;20070;-48
2021/12/06 03:28:19;;;;;;;0.43;0.43;;;3.00;99.90;;;;;;5074985;28;20016;-53
2021/12/06 03:30:45;;;;;;;0.00;0.00;;;3.00;99.90;;;;;;5075073;28;20089;-49
2021/12/06 03:33:10;;;;;;;0.00;0.00;;;3.00;99.90;;;;;;5078496;28;20115;-48
2021/12/06 03:35:37;;;;;;;0.00;0.00;;;2.90;99.90;;;;;;5071142;28;20071;-51
2021/12/06 03:38:03;;;;;;;0.00;0.00;;;2.90;99.90;;;;;;5072174;28;20074;-53
2021/12/06 03:40:29;;;;;;;0.00;0.00;;;2.90;99.90;;;;;;5073664;28;20486;-53
2021/12/06 03:42:55;;;;;;;0.20;0.15;;;3.00;99.90;;;;;;5074040;28;20021;-49
2021/12/06 03:45:20;;;;;;;0.28;0.28;;;3.00;99.90;;;;;;5073849;28;20021;-49
2021/12/06 03:47:46;;;;;;;5.32;0.77;;;3.00;99.90;;;;;;5073329;28;20024;-51
2021/12/06 03:50:12;;;;;;;1.10;1.00;;;3.00;99.90;;;;;;5092286;28;20494;-53
2021/12/06 03:52:38;;;;;;;0.32;0.32;;;2.90;99.90;;;;;;5092987;28;20475;-51
2021/12/06 03:55:07;;;;;;;0.00;0.00;;;2.80;99.90;;;;;;5092836;28;20047;-51
2021/12/06 03:57:33;;;;;;;0.52;0.52;;;2.70;99.90;;;;;;5074212;28;20024;-51
2021/12/06 03:59:59;;;;;;;0.00;0.00;;;2.80;99.90;;;;;;5079989;28;20035;-49
2021/12/06 04:02:29;;;;;;;0.00;0.00;;;2.80;99.90;;;;;;5083278;28;20158;-48
2021/12/06 04:04:56;;;;;;;0.55;0.52;;;2.80;99.90;;;;;;5088521;28;20044;-51
2021/12/06 04:07:22;;;;;;;1.17;1.00;;;2.80;99.90;;;;;;5073362;28;20024;-53
2021/12/06 04:09:48;;;;;;;0.32;0.32;;;2.80;99.90;;;;;;5055283;28;20025;-49
2021/12/06 04:12:15;;;;;;;0.10;0.10;;;2.80;99.90;;;;;;5072672;28;20024;-50
2021/12/06 04:14:41;;;;;;;0.40;0.40;;;2.80;99.90;;;;;;5055905;28;20064;-49
2021/12/06 04:17:07;;;;;;;0.98;0.75;;;2.80;99.90;;;;;;5071911;28;20100;-50
2021/12/06 04:19:33;;;;;;;2.13;1.92;;;2.80;99.90;;;;;;5073989;28;20108;-47
2021/12/06 04:21:58;;;;;;;0.28;0.28;;;2.80;99.90;;;;;;5074155;28;20052;-47
2021/12/06 04:24:24;;;;;;;0.60;0.60;;;2.90;99.90;;;;;;5068555;28;20033;-51
2021/12/06 04:26:50;;;;;;;1.10;1.00;;;2.70;99.90;;;;;;5073746;28;20529;-47
2021/12/06 04:29:16;;;;;;;0.00;0.00;;;2.70;99.90;;;;;;5074059;28;20028;-50
2021/12/06 04:31:50;;;;;;;0.00;0.00;;;2.70;99.90;;;;;;5074065;28;20063;-48
2021/12/06 04:34:17;;;;;;;5.78;1.52;;;2.70;99.90;;;;;;5073593;28;20032;-49
2021/12/06 04:36:44;;;;;;;2.03;1.83;;;2.70;99.90;;;;;;5073431;28;20033;-47
2021/12/06 04:39:13;;;;;;;0.08;0.08;;;2.60;99.90;;;;;;5073861;28;20048;-49
2021/12/06 04:41:39;;;;;;;0.10;0.10;;;2.70;99.90;;;;;;5073784;28;20417;-50
2021/12/06 04:44:05;;;;;;;1.55;0.38;;;2.80;99.90;;;;;;5073692;28;20115;-54
2021/12/06 04:46:31;;;;;;;0.00;0.00;;;2.80;99.90;;;;;;5073436;28;20375;-49
2021/12/06 04:48:57;;;;;;;0.00;0.00;;;2.80;99.90;;;;;;5073158;28;20029;-52
2021/12/06 04:51:23;;;;;;;0.00;0.00;;;2.80;99.90;;;;;;5073713;28;20031;-51
2021/12/06 04:53:49;;;;;;;0.00;0.00;;;2.80;99.90;;;;;;5073170;28;20068;-49
2021/12/06 04:56:34;;;;;;;3.13;2.92;;;2.90;99.90;;;;;;5073485;28;20381;-51
2021/12/06 04:59:15;;;;;;;0.00;0.00;;;2.70;99.90;;;;;;5073261;28;20113;-50
2021/12/06 05:01:42;;;;;;;0.10;0.10;;;2.90;99.90;;;;;;5073390;28;20024;-50
2021/12/06 05:04:13;;;;;;;0.00;0.00;;;2.90;99.90;;;;;;5073467;28;20410;-49
2021/12/06 05:06:43;;;;;;;1.58;1.48;;;2.90;99.90;;;;;;5073399;28;20027;-47
2021/12/06 05:09:18;;;;;;;0.00;0.00;;;2.90;99.90;;;;;;5073285;28;20463;-48
2021/12/06 05:11:44;;;;;;;1.15;0.73;;;2.80;99.90;;;;;;5073572;28;20028;-49
2021/12/06 05:14:11;;;;;;;0.85;0.85;;;2.90;99.90;;;;;;5072998;28;20040;-49
2021/12/06 05:16:36;;;;;;;0.13;0.13;;;2.80;99.90;;;;;;5073182;28;20025;-51
2021/12/06 05:19:04;;;;;;;0.00;0.00;;;2.80;99.90;;;;;;5073367;28;20463;-51
2021/12/06 05:21:31;;;;;;;0.00;0.00;;;2.70;99.90;;;;;;5073178;28;20082;-51
2021/12/06 05:23:56;;;;;;;0.00;0.00;;;2.70;99.90;;;;;;5072709;28;20032;-50
2021/12/06 05:26:22;;;;;;;0.00;0.00;;;2.60;99.90;;;;;;5072771;28;20043;-51
2021/12/06 05:28:49;;;;;;;0.00;0.00;;;2.60;99.90;;;;;;5072981;28;20028;-51
2021/12/06 05:31:18;;;;;;;0.00;0.00;;;2.80;99.90;;;;;;5072881;28;20383;-48
2021/12/06 05:33:47;;;;;;;0.85;0.85;;;2.70;99.90;;;;;;5072850;28;20077;-48
2021/12/06 05:36:14;;;;;;;0.03;0.03;;;2.80;99.90;;;;;;5077117;28;20455;-49
2021/12/06 05:38:39;;;;;;;0.00;0.00;;;2.90;99.90;;;;;;5077329;28;20115;-51
2021/12/06 05:41:06;;;;;;;0.00;0.00;;;2.80;99.90;;;;;;5059138;28;20111;-47
2021/12/06 05:43:33;;;;;;;2.80;0.52;;;2.80;99.90;;;;;;5076831;28;20039;-53
2021/12/06 05:45:59;;;;;;;1.55;0.80;;;2.80;99.90;;;;;;5076599;28;20463;-49
2021/12/06 05:48:25;;;;;;;0.45;0.38;;;2.80;99.90;;;;;;5077038;28;20031;-50
2021/12/06 05:50:51;;;;;;;2.20;1.70;;;2.90;99.90;;;;;;5076476;28;20024;-50
2021/12/06 05:53:17;;;;;;;0.00;0.00;;;2.80;99.90;;;;;;5076469;28;20027;-50
2021/12/06 05:55:43;;;;;;;9.40;3.08;;;2.60;99.90;;;;;;5076343;28;20036;-49
2021/12/06 05:58:11;;;;;;;0.00;0.00;;;2.60;99.90;;;;;;5076402;28;20131;-49
2021/12/06 06:00:37;;;;;;;0.10;0.10;;;2.60;99.90;;;;;;5076474;28;20047;-47
2021/12/06 06:03:05;;;;;;;0.00;0.00;;;2.80;99.90;;;;;;5085031;28;20044;-52
2021/12/06 06:05:33;;;;;;;0.20;0.20;;;2.80;99.90;;;;;;5078335;28;20107;-49
2021/12/06 06:08:00;;;;;;;0.00;0.00;;;2.80;99.90;;;;;;5096513;28;20028;-50
2021/12/06 06:10:26;;;;;;;0.00;0.00;;;2.70;99.90;;;;;;5096707;28;20028;-49
2021/12/06 06:12:52;;;;;;;1.55;1.45;;;2.80;99.90;;;;;;5096581;28;20031;-50
2021/12/06 06:15:17;;;;;;;0.65;0.65;;;2.70;99.90;;;;;;5078064;28;20032;-51
2021/12/06 06:17:44;;;;;;;0.00;0.00;;;2.70;99.90;;;;;;5096099;28;20451;-50
2021/12/06 06:20:20;;;;;;;0.00;0.00;;;2.70;99.90;;;;;;5096580;28;20144;-50
2021/12/06 06:22:46;;;;;;;1.27;0.77;;;2.80;99.90;;;;;;5095888;28;20407;-48
2021/12/06 06:25:12;;;;;;;0.00;0.00;;;2.80;99.90;;;;;;5096111;28;20032;-51
2021/12/06 06:27:37;;;;;;;3.92;1.52;;;2.80;99.90;;;;;;5095897;28;20479;-51
2021/12/06 06:30:05;;;;;;;8.68;3.30;;;2.60;99.90;;;;;;5096063;28;20055;-51
2021/12/06 06:32:31;;;;;;;0.00;0.00;;;2.40;99.90;;;;;;5095402;28;20455;-49
2021/12/06 06:34:56;;;;;;;0.38;0.38;;;2.40;99.90;;;;;;5077324;28;20032;-48
2021/12/06 06:37:22;;;;;;;0.60;0.60;;;2.40;99.90;;;;;;5077303;28;20113;-53
2021/12/06 06:39:48;;;;;;;1.48;0.85;;;2.40;99.90;;;;;;5095536;28;20467;-48
2021/12/06 06:42:15;;;;;;;0.00;0.00;;;2.40;99.90;;;;;;5095755;28;20379;-52
2021/12/06 06:44:41;;;;;;;5.93;3.13;;;2.50;99.90;;;;;;5095352;28;20032;-50
2021/12/06 06:47:07;;;;;;;0.00;0.00;;;2.50;99.90;;;;;;5094186;28;20477;-52
2021/12/06 06:49:32;;;;;;;0.00;0.00;;;2.50;99.90;;;;;;5095402;28;20035;-51
2021/12/06 06:51:59;;;;;;;0.38;0.38;;;2.60;99.90;;;;;;5096003;28;20043;-51
2021/12/06 06:54:25;;;;;;;0.70;0.70;;;2.60;99.90;;;;;;5077254;28;20064;-50
2021/12/06 06:56:51;;;;;;;0.80;0.80;;;2.50;99.90;;;;;;5095035;28;20058;-50
2021/12/06 06:59:17;;;;;;;0.08;0.08;;;2.60;99.90;;;;;;5095807;28;20032;-49
2021/12/06 07:01:45;;;;;;;0.00;0.00;;;2.60;99.90;;;;;;5095152;28;20094;-50
2021/12/06 07:04:12;;;;;;;0.08;0.05;;;2.50;99.90;;;;;;5095275;28;20059;-52
2021/12/06 07:06:37;;;;;;;0.10;0.10;;;2.60;99.90;;;;;;5095527;28;20473;-53
2021/12/06 07:09:04;;;;;;;0.55;0.40;;;2.60;99.90;;;;;;5095289;28;20028;-51
2021/12/06 07:11:29;;;;;;;6.95;2.85;;;2.60;99.90;;;;;;5094970;28;20106;-52
2021/12/06 07:13:56;;;;;;;5.82;5.40;;;2.40;99.90;;;;;;5094867;28;20162;-52
2021/12/06 07:16:23;;;;;;;0.20;0.20;;;2.40;99.90;;;;;;5095102;28;20111;-53
2021/12/06 07:18:49;;;;;;;2.10;1.98;;;2.30;99.90;;;;;;5095127;28;20024;-51
2021/12/06 07:21:15;;;;;;;7.63;3.70;;;2.10;99.90;;;;;;5094703;28;20383;-51
2021/12/06 07:23:42;;;;;;;0.15;0.15;;;2.00;99.90;;;;;;5094483;28;20029;-52
2021/12/06 07:26:10;;;;;;;6.47;3.33;;;1.90;99.90;;;;;;5076686;28;20429;-51
2021/12/06 07:28:37;;;;;;;0.05;0.05;;;2.00;99.90;;;;;;5094389;28;20399;-52
2021/12/06 07:31:06;;;;;;;2.92;2.47;;;2.10;99.90;;;;;;5094471;28;20455;-48
2021/12/06 07:33:36;;;;;;;1.45;0.43;;;2.10;99.90;;;;;;5094578;28;20023;-51
2021/12/06 07:36:03;;;;;;;1.55;1.45;;;2.20;99.90;;;;;;5094536;28;20050;-49
2021/12/06 07:38:29;;;;;;;0.10;0.10;;;2.30;99.90;;;;;;5094296;28;20047;-51
2021/12/06 07:40:55;;;;;;;1.33;1.20;;;2.30;99.90;;;;;;5094794;28;20106;-49
2021/12/06 07:43:21;;;;;;;11.60;3.70;;;2.20;99.90;;;;;;5094495;28;20442;-50
2021/12/06 07:45:47;;;;;;;1.77;1.60;;;2.30;99.90;;;;;;5094029;28;20052;-48
2021/12/06 07:48:14;;;;;;;0.00;0.00;;;2.30;99.90;;;;;;5094906;28;20026;-51
2021/12/06 07:50:40;;;;;;;0.00;0.00;;;2.50;99.90;;;;;;5094992;28;20118;-54
2021/12/06 07:53:06;;;;;;;1.42;0.50;;;2.50;99.90;;;;;;5094446;28;20020;-48
2021/12/06 07:55:34;;;;;;;0.03;0.03;;;2.50;99.90;;;;;;5093770;28;20113;-49
2021/12/06 07:58:02;;;;;;;0.43;0.43;;;2.50;99.90;;;;;;5093984;28;20057;-48
2021/12/06 08:00:31;;;;;;;1.42;1.33;;;2.60;99.90;;;;;;5094202;28;20035;-52
2021/12/06 08:02:57;;;;;;;0.00;0.00;;;2.60;99.90;;;;;;5075708;28;20048;-49
2021/12/06 08:05:30;;;;;;;4.68;3.22;;;2.40;99.90;;;;;;5094133;28;20055;-50
2021/12/06 08:07:57;;;;;;;7.90;4.32;;;2.40;99.90;;;;;;5093837;28;20028;-47
2021/12/06 08:10:22;;;;;;;8.68;1.83;;;2.20;99.90;;;;;;5094090;28;20108;-52
2021/12/06 08:12:49;;;;;;;3.15;2.10;;;2.10;99.90;;;;;;5094049;28;20069;-51
2021/12/06 08:15:16;;;;;;;2.28;1.60;;;2.10;99.90;;;;;;5093884;28;20032;-54
2021/12/06 08:17:42;;;;;;;3.92;1.92;;;2.10;99.90;;;;;;5075807;28;20031;-50
2021/12/06 08:20:09;;;;;;;7.28;3.30;;;2.20;99.90;;;;;;5093547;28;20511;-50
2021/12/06 08:22:36;;;;;;;7.00;4.80;;;2.30;99.90;;;;;;5093795;28;20478;-52
2021/12/06 08:25:02;;;;;;;8.77;4.50;;;2.20;99.90;;;;;;5093598;28;20028;-48
2021/12/06 08:27:28;;;;;;;11.48;5.35;;;1.90;99.90;;;;;;5088857;28;20016;-48
2021/12/06 08:29:54;;;;;;;4.70;1.17;;;1.90;99.90;;;;;;5073632;28;20039;-50
2021/12/06 08:32:20;;;;;;;6.97;3.15;;;2.00;99.90;;;;;;5061812;28;20035;-49
2021/12/06 08:34:46;;;;;;;11.02;6.05;;;2.20;99.90;;;;;;5093394;28;20112;-49
2021/12/06 08:37:12;;;;;;;7.47;3.78;;;2.00;99.90;;;;;;5093617;28;20100;-49
2021/12/06 08:39:39;;;;;;;2.70;2.50;;;2.00;99.90;;;;;;5093285;28;20020;-51
2021/12/06 08:42:06;;;;;;;0.28;0.28;;;2.20;99.90;;;;;;5092958;28;20035;-52
2021/12/06 08:44:33;;;;;;;0.00;0.00;;;2.30;99.90;;;;;;5086660;28;20447;-49
2021/12/06 08:46:59;;;;;;;0.00;0.00;;;2.40;99.90;;;;;;5087778;28;20034;-49
2021/12/06 08:49:26;;;;;;;0.52;0.52;;;2.60;99.90;;;;;;5093155;28;20028;-50
2021/12/06 08:51:55;;;;;;;2.35;1.27;;;2.80;99.90;;;;;;5093425;28;20111;-47
2021/12/06 08:54:26;;;;;;;0.00;0.00;;;2.80;99.90;;;;;;5092974;28;20467;-51
2021/12/06 08:56:54;;;;;;;3.70;1.83;;;2.80;99.90;;;;;;5093095;28;20509;-49
2021/12/06 08:59:21;;;;;;;0.00;0.00;;;2.70;99.90;;;;;;5077241;28;20028;-51
2021/12/06 09:01:47;;;;;;;1.70;0.82;;;2.70;99.90;;;;;;5093382;28;20032;-48
2021/12/06 09:04:13;;;;;;;2.20;1.15;;;2.90;99.90;;;;;;5091579;28;20052;-51
2021/12/06 09:06:49;;;;;;;0.00;0.00;;;2.60;99.90;;;;;;5093122;28;20024;-52
2021/12/06 09:09:15;;;;;;;2.17;1.30;;;2.70;99.90;;;;;;5074559;28;20028;-51
2021/12/06 09:11:44;;;;;;;1.15;1.00;;;2.90;99.90;;;;;;5093023;28;20375;-51
2021/12/06 09:14:10;;;;;;;0.40;0.40;;;3.00;99.90;;;;;;5092725;28;20039;-49
2021/12/06 09:16:37;;;;;;;1.00;0.93;;;3.20;99.90;;;;;;5093213;28;20352;-49
2021/12/06 09:19:05;;;;;;;0.85;0.85;;;3.40;99.90;;;;;;5092967;28;20036;-50
2021/12/06 09:21:32;;;;;;;0.17;0.17;;;3.30;99.90;;;;;;5074017;28;20073;-54
2021/12/06 09:24:00;;;;;;;2.65;1.60;;;3.40;99.90;;;;;;5084494;28;20038;-53
2021/12/06 09:26:28;;;;;;;5.68;1.65;;;3.10;99.90;;;;;;5092603;28;20103;-49
2021/12/06 09:28:55;;;;;;;0.00;0.00;;;3.20;99.90;;;;;;5092669;28;20053;-52
2021/12/06 09:31:21;;;;;;;3.13;1.00;;;3.30;99.90;;;;;;5093131;28;20020;-51
2021/12/06 09:33:47;;;;;;;1.10;1.00;;;3.40;99.90;;;;;;5092527;28;20028;-52
2021/12/06 09:36:14;;;;;;;0.30;0.17;;;3.50;99.90;;;;;;5088150;28;20031;-51
2021/12/06 09:38:41;;;;;;;0.75;0.75;;;3.20;99.90;;;;;;5078006;28;20114;-52
2021/12/06 09:41:20;;;;;;;0.00;0.00;;;3.50;99.90;;;;;;5080293;28;20031;-49
2021/12/06 09:43:47;;;;;;;2.40;1.67;;;3.60;99.90;;;;;;5085434;28;20464;-50
2021/12/06 09:46:13;;;;;;;8.40;2.10;;;3.60;99.90;;;;;;5094907;28;20470;-49
2021/12/06 09:48:41;;;;;;;0.32;0.32;;;3.60;99.90;;;;;;5112864;28;20077;-50
2021/12/06 09:51:12;;;;;;;0.30;0.30;;;3.60;99.90;;;;;;5101619;28;20511;-49
2021/12/06 09:53:40;;;;;;;1.80;1.65;;;3.70;99.90;;;;;;5092598;28;20032;-49
2021/12/06 09:56:13;;;;;;;0.15;0.15;;;3.50;99.90;;;;;;5092913;28;20035;-48
2021/12/06 09:58:40;;;;;;;3.20;2.28;;;3.40;99.90;;;;;;5092612;28;20028;-47
2021/12/06 10:01:13;;;;;;;0.43;0.43;;;3.50;99.90;;;;;;5091949;28;20058;-48
2021/12/06 10:03:39;;;;;;;0.10;0.10;;;3.70;99.90;;;;;;5101398;28;20117;-46
2021/12/06 10:06:06;;;;;;;4.95;2.80;;;3.80;99.90;;;;;;5101018;28;20040;-48
2021/12/06 10:08:37;;;;;;;0.20;0.20;;;3.90;99.90;;;;;;5092469;28;20024;-47
2021/12/06 10:11:05;;;;;;;0.00;0.00;;;3.90;99.90;;;;;;5093020;28;20066;-47
2021/12/06 10:13:32;;;;;;;2.63;1.63;;;3.90;99.90;;;;;;5073964;28;20032;-49
2021/12/06 10:15:58;;;;;;;1.65;1.55;;;3.90;99.90;;;;;;5091908;28;20032;-48
2021/12/06 10:18:24;;;;;;;1.65;0.70;;;4.00;99.90;;;;;;5092583;28;20062;-48
2021/12/06 10:20:50;;;;;;;0.52;0.45;;;3.80;99.90;;;;;;5093633;28;20032;-52
2021/12/06 10:23:17;;;;;;;11.80;1.88;;;3.70;99.90;;;;;;5096675;28;20032;-49
2021/12/06 10:25:47;;;;;;;0.05;0.05;;;4.00;99.90;;;;;;5095845;28;20382;-50
2021/12/06 10:28:14;;;;;;;1.65;1.42;;;4.20;99.90;;;;;;5096461;28;20024;-48
2021/12/06 10:30:43;;;;;;;0.70;0.70;;;4.10;99.90;;;;;;5095563;28;20064;-50
2021/12/06 10:33:17;;;;;;;0.35;0.35;;;3.80;99.90;;;;;;5095723;28;20360;-48
2021/12/06 10:35:47;;;;;;;0.00;0.00;;;3.80;99.90;;;;;;5095834;28;20145;-52
2021/12/06 10:38:23;;;;;;;1.48;1.38;;;3.80;99.90;;;;;;5095944;28;20051;-50
2021/12/06 10:40:55;;;;;;;1.35;0.73;;;3.80;99.90;;;;;;5095535;28;20020;-50
2021/12/06 10:43:20;;;;;;;;;;;3.90;99.90;;;;;;5096043;28;20340;-49
2021/12/06 10:45:48;;;;;;;0.00;0.00;;;3.80;99.90;;;;;;5095503;28;19910;-49
2021/12/06 10:48:25;;;;;;;5.47;2.33;;;3.80;99.90;;;;;;5076978;28;20024;-50
2021/12/06 10:50:51;;;;;;;1.25;1.15;;;3.70;99.90;;;;;;5077876;28;20106;-50
2021/12/06 10:53:19;;;;;;;4.32;1.80;;;3.60;99.90;;;;;;5095558;28;20423;-48
2021/12/06 10:55:47;;;;;;;0.15;0.15;;;3.40;99.90;;;;;;5095411;28;20028;-47
2021/12/06 10:58:16;;;;;;;0.10;0.10;;;3.40;99.90;;;;;;5095165;28;20036;-48
2021/12/06 11:01:06;;;;;;;0.68;0.68;;;3.30;99.90;;;;;;5095697;28;20024;-49
2021/12/06 11:03:40;;;;;;;0.63;0.63;;;3.40;99.90;;;;;;5090899;28;20549;-49
2021/12/06 11:06:18;;;;;;;0.88;0.80;;;3.40;99.90;;;;;;5095004;28;20421;-48
2021/12/06 11:08:46;;;;;;;8.98;3.20;;;3.40;99.90;;;;;;5095683;28;20093;-49
2021/12/06 11:11:15;;;;;;;0.00;0.00;;;3.30;99.90;;;;;;5083309;28;20024;-51
2021/12/06 11:13:54;;;;;;;0.57;0.57;;;3.20;99.90;;;;;;5074142;28;20029;-52
2021/12/06 11:16:27;;;;;;;0.63;0.63;;;3.30;99.90;;;;;;5063410;28;20027;-48
2021/12/06 11:19:18;;;;;;;0.32;0.32;;;3.40;99.90;;;;;;5061102;28;20025;-49
2021/12/06 11:21:48;;;;;;;0.00;0.00;;;3.60;99.90;;;;;;5058285;28;20100;-48
2021/12/06 11:24:26;;;;;;;3.63;1.75;;;3.70;99.90;;;;;;5068406;28;20112;-54
2021/12/06 11:26:55;;;;;;;0.00;0.00;;;3.70;99.90;;;;;;5068289;28;20430;-48
2021/12/06 11:29:25;;;;;;;2.42;1.48;;;3.70;99.90;;;;;;5059198;28;20032;-48
2021/12/06 11:31:55;;;;;;;0.95;0.95;;;3.70;99.90;;;;;;5054651;28;20032;-51
2021/12/06 11:34:26;;;;;;;2.13;2.00;;;3.80;99.90;;;;;;5046391;28;20040;-52
2021/12/06 11:36:52;;;;;;;0.30;0.30;;;3.80;99.90;;;;;;5063336;28;20271;-51
2021/12/06 11:39:21;;;;;;;2.03;1.45;;;3.90;99.90;;;;;;5061703;28;20032;-52
2021/12/06 11:41:52;;;;;;;2.72;2.38;;;3.60;99.90;;;;;;5071358;28;20089;-51
2021/12/06 11:44:23;;;;;;;;;;;3.20;99.90;;;;;;5073214;28;20032;-48
2021/12/06 11:47:02;;;;;;;0.80;0.22;;;3.30;99.90;;;;;;5062702;28;19962;-51
2021/12/06 11:49:32;;;;;;;0.00;0.00;;;3.40;99.90;;;;;;5054382;28;20075;-48
2021/12/06 11:52:00;;;;;;;1.47;1.40;;;3.60;99.90;;;;;;5064825;28;20024;-50
2021/12/06 11:54:26;;;;;;;0.00;0.00;;;3.70;99.90;;;;;;5070131;28;20036;-50
2021/12/06 11:56:52;;;;;;;0.00;0.00;;;3.80;99.90;;;;;;5073694;28;20028;-50
2021/12/06 11:59:19;;;;;;;0.30;0.30;;;3.90;99.90;;;;;;5070793;28;20081;-50
2021/12/06 12:01:53;;;;;;;0.00;0.00;;;4.00;99.90;;;;;;5070530;28;20483;-50
2021/12/06 12:04:29;;;;;;;1.65;1.23;;;3.90;99.90;;;;;;5086648;28;20055;-49
2021/12/06 12:06:59;;;;;;;0.95;0.77;;;3.80;99.90;;;;;;5074977;28;20048;-48
2021/12/06 12:09:30;;;;;;;1.67;1.45;;;3.60;99.90;;;;;;5075108;28;20021;-49
2021/12/06 12:11:59;;;;;;;0.85;0.55;;;3.40;99.90;;;;;;5073847;28;20025;-53
2021/12/06 12:14:30;;;;;;;0.00;0.00;;;3.60;99.90;;;;;;5088835;28;20542;-51
2021/12/06 12:16:57;;;;;;;0.00;0.00;;;3.80;99.90;;;;;;5075816;28;20111;-51
2021/12/06 12:19:23;;;;;;;2.65;2.45;;;3.80;99.90;;;;;;5086974;28;20078;-50
2021/12/06 12:21:49;;;;;;;3.22;1.52;;;3.90;99.90;;;;;;5091794;28;20028;-50
2021/12/06 12:24:14;;;;;;;0.00;0.00;;;3.90;99.90;;;;;;5092814;28;20111;-51
2021/12/06 12:26:51;;;;;;;0.00;0.00;;;3.90;99.90;;;;;;5091539;28;20368;-50
2021/12/06 12:29:24;;;;;;;2.97;1.35;;;4.00;99.90;;;;;;5088216;28;20024;-53
2021/12/06 12:31:52;;;;;;;0.00;0.00;;;4.10;99.90;;;;;;5087317;28;20031;-53
2021/12/06 12:34:18;;;;;;;4.13;2.33;;;4.10;99.90;;;;;;5113827;28;20023;-56
2021/12/06 12:36:44;;;;;;;2.92;1.75;;;3.70;99.90;;;;;;5108069;28;20016;-49
2021/12/06 12:39:17;;;;;;;0.43;0.43;;;3.60;99.90;;;;;;5093150;28;20351;-48
2021/12/06 12:41:59;;;;;;;0.08;0.08;;;3.50;99.90;;;;;;5093854;28;20024;-54
2021/12/06 12:44:50;;;;;;;0.00;0.00;;;3.40;99.90;;;;;;5092317;28;20371;-48
2021/12/06 12:47:26;;;;;;;2.70;0.70;;;3.60;99.90;;;;;;5092840;28;20024;-54
2021/12/06 12:50:00;;;;;;;0.00;0.00;;;3.80;99.90;;;;;;5085335;28;20036;-50
2021/12/06 12:52:47;;;;;;;0.43;0.43;;;3.40;99.90;;;;;;5073216;28;20069;-51
2021/12/06 12:55:25;;;;;;;0.00;0.00;;;3.60;99.90;;;;;;5073055;28;20024;-54
2021/12/06 12:58:08;;;;;;;0.00;0.00;;;3.70;99.90;;;;;;5073341;28;20107;-54
2021/12/06 13:00:47;;;;;;;5.88;2.28;;;3.80;99.90;;;;;;5090308;28;20028;-53
2021/12/06 13:03:34;;;;;;;0.00;0.00;;;3.90;99.90;;;;;;5083098;28;20120;-52
2021/12/06 13:06:20;;;;;;;0.00;0.00;;;3.90;99.90;;;;;;5061986;28;20124;-51
2021/12/06 13:08:48;;;;;;;4.65;1.85;;;4.00;99.90;;;;;;5071790;28;20078;-51
2021/12/06 13:11:14;;;;;;;4.25;1.13;;;4.00;99.90;;;;;;5072815;28;20025;-47
2021/12/06 13:13:47;;;;;;;4.03;2.45;;;4.00;99.90;;;;;;5072207;28;20028;-49
2021/12/06 13:16:58;;;;;;;3.20;1.63;;;3.90;99.90;;;;;;5064699;28;20036;-48
2021/12/06 13:19:50;;;;;;;1.75;1.45;;;3.70;99.90;;;;;;5060562;28;20075;-49